Carnival Miracle — H3VS — position and weather

sailwx.info

Track history (hours):
 
Tides and Currents Weather Stations Pressure Air Temp Water Temp Dewpoint Dewpoint Depression Visibility Wind Speed Wind Dir Waves Ship Positions

Carnival Miracle

Operator: Carnival Cruise Lines

Last reported at 2019-Apr-23 22:07 UTC. Time now 2019-Apr-24 21:58 UTC.
Position N 20°20' W 087°05'.

Type: Ship. MMSI: 35437000.

Date/timePositionNaut miles runAvg speedWind from/ knotsBaromVisibWave heightAir tempDewpointWater temp
2019-Apr-23 22:07N 20°20' W 087°05'214.3
2019-Apr-23 22:00N 20°22' W 087°04'713.9
2019-Apr-23 21:30N 20°28' W 087°01'2 3.9
2019-Apr-23 20:58N 20°29' W 086°59'0 0.0
2019-Apr-23 20:28N 20°29' W 086°59'0 0.0
2019-Apr-23 19:58N 20°29' W 086°59'0 0.0
2019-Apr-23 19:30N 20°29' W 086°59'0 0.0
2019-Apr-23 19:00N 20°29' W 086°59'0 0.0
2019-Apr-23 18:30N 20°29' W 086°59'0 0.0
2019-Apr-23 18:00N 20°29' W 086°59'0 0.0
2019-Apr-23 17:24N 20°29' W 086°59'0 0.0
2019-Apr-23 16:59N 20°29' W 086°59'0 0.0
2019-Apr-23 16:26N 20°29' W 086°59'0 0.0
2019-Apr-23 15:59N 20°29' W 086°59'0 0.0
2019-Apr-23 15:26N 20°29' W 086°59'0 0.0
2019-Apr-23 14:59N 20°29' W 086°59'0 0.0
2019-Apr-23 14:28N 20°29' W 086°59'0 0.0
2019-Apr-23 13:58N 20°29' W 086°59'0 0.0
2019-Apr-23 13:28N 20°29' W 086°59'0 0.0
2019-Apr-23 12:58N 20°29' W 086°59'0 0.0
2019-Apr-23 12:27N 20°29' W 086°59'0 0.0
2019-Apr-23 12:00N 20°29' W 086°59'0 0.0
2019-Apr-23 11:30N 20°29' W 086°59'1 3.0
2019-Apr-23 11:01N 20°30' W 086°59'4 8.3
2019-Apr-23 10:30N 20°34' W 086°58'4 7.7
2019-Apr-23 10:00N 20°37' W 086°55'4 7.4
2019-Apr-23 09:30N 20°40' W 086°53'27211.6
2019-Apr-22 10:00N 24°24' W 084°06'21517.3 070 / 111019.627.0 26.023.225.0
2019-Apr-21 21:34N 27°42' W 082°33'115.5
2019-Apr-21 21:30N 27°43' W 082°33'612.8
2019-Apr-21 21:00N 27°48' W 082°29'611.6
2019-Apr-21 20:30N 27°53' W 082°26'3 5.4
2019-Apr-21 20:00N 27°56' W 082°27'1 1.2
2019-Apr-21 19:28N 27°57' W 082°27'0 0.0
2019-Apr-21 18:58N 27°57' W 082°27'0 0.0
2019-Apr-21 18:31N 27°57' W 082°27'0 0.0
2019-Apr-21 18:00N 27°57' W 082°27'0 0.0
2019-Apr-21 17:30N 27°57' W 082°27'0 0.0
2019-Apr-21 17:00N 27°57' W 082°27'0 0.0
2019-Apr-21 16:30N 27°57' W 082°27'0 0.0
2019-Apr-21 15:59N 27°57' W 082°27'0 0.0
2019-Apr-21 15:29N 27°57' W 082°27'0 0.0
2019-Apr-21 14:59N 27°57' W 082°27'0 0.0
2019-Apr-21 14:29N 27°57' W 082°27'0 0.0
2019-Apr-21 13:59N 27°57' W 082°27'0 0.0
2019-Apr-21 13:30N 27°57' W 082°27'0 0.0
2019-Apr-21 12:58N 27°57' W 082°27'0 0.0
2019-Apr-21 12:28N 27°57' W 082°27'0 0.0
2019-Apr-21 11:58N 27°57' W 082°27'0 0.0
2019-Apr-21 11:30N 27°57' W 082°27'0 0.0
2019-Apr-21 11:00N 27°57' W 082°27'0 0.3
2019-Apr-21 10:30N 27°57' W 082°27'1 2.6
2019-Apr-21 10:00N 27°55' W 082°27'3 6.7
2019-Apr-21 09:30N 27°52' W 082°27'611.9
2019-Apr-21 09:00N 27°47' W 082°31'713.6
2019-Apr-21 08:30N 27°41' W 082°34'30713.1
2019-Apr-20 09:00N 23°12' W 085°18'17416.5 310 / 201014.727.0 26.023.228.0
2019-Apr-19 22:25N 20°42' W 086°53'818.9
2019-Apr-19 21:59N 20°35' W 086°58'612.3
2019-Apr-19 21:31N 20°29' W 086°59'0 0.7
2019-Apr-19 21:00N 20°29' W 086°59'0 0.0
2019-Apr-19 20:30N 20°29' W 086°59'0 0.0
2019-Apr-19 20:00N 20°29' W 086°59'0 0.0
2019-Apr-19 19:30N 20°29' W 086°59'0 0.0
2019-Apr-19 19:00N 20°29' W 086°59'0 0.0
2019-Apr-19 18:29N 20°29' W 086°59'0 0.0
2019-Apr-19 17:59N 20°29' W 086°59'0 0.0
2019-Apr-19 17:29N 20°29' W 086°59'0 0.0
2019-Apr-19 16:59N 20°29' W 086°59'0 0.0
2019-Apr-19 16:28N 20°29' W 086°59'0 0.0
2019-Apr-19 15:58N 20°29' W 086°59'0 0.0
2019-Apr-19 15:28N 20°29' W 086°59'0 0.0
2019-Apr-19 14:58N 20°29' W 086°59'0 0.0
2019-Apr-19 14:28N 20°29' W 086°59'0 0.0
2019-Apr-19 14:00N 20°29' W 086°59'0 0.0
2019-Apr-19 13:30N 20°29' W 086°59'0 0.0
2019-Apr-19 13:00N 20°29' W 086°59'0 0.0
2019-Apr-19 12:30N 20°29' W 086°59'0 0.0
2019-Apr-19 11:57N 20°29' W 086°59'0 0.6
2019-Apr-19 11:30N 20°29' W 086°59'2 4.1
2019-Apr-19 11:00N 20°29' W 087°01'815.1
2019-Apr-19 10:29N 20°23' W 087°05'234 4.8
2019-Apr-17 10:00N 16°42' W 085°42'23619.7 110 / 121012.927.0 26.023.228.0
2019-Apr-16 22:00N 18°48' W 082°12'54 4.1 060 / 121014.410.8 26.021.828.0
2019-Apr-16 09:00N 19°24' W 081°30'32214.0 050 / 10 27.0 26.024.628.0
2019-Apr-15 10:00N 24°06' W 084°18'13322.2 310 / 20 27.0 23.020.126.0
2019-Apr-15 04:00N 26°12' W 083°30'10316.4 270 / 111014.0 20.020.025.0
2019-Apr-14 21:44N 27°42' W 082°34'415.3
2019-Apr-14 21:27N 27°45' W 082°31'612.3
2019-Apr-14 21:01N 27°49' W 082°27'611.4
2019-Apr-14 20:30N 27°55' W 082°27'2 3.6
2019-Apr-14 19:59N 27°57' W 082°27'0 0.4
2019-Apr-14 19:29N 27°57' W 082°27'0 0.0
2019-Apr-14 18:59N 27°57' W 082°27'0 0.0
2019-Apr-14 18:28N 27°57' W 082°27'0 0.0
2019-Apr-14 17:58N 27°57' W 082°27'0 0.0
2019-Apr-14 17:28N 27°57' W 082°27'0 0.0
2019-Apr-14 16:58N 27°57' W 082°27'0 0.0
2019-Apr-14 16:28N 27°57' W 082°27'0 0.0
2019-Apr-14 16:00N 27°57' W 082°27'0 0.0
2019-Apr-14 15:30N 27°57' W 082°27'0 0.0
2019-Apr-14 15:00N 27°57' W 082°27'0 0.0
2019-Apr-14 14:30N 27°57' W 082°27'0 0.0
2019-Apr-14 13:59N 27°57' W 082°27'0 0.0
2019-Apr-14 13:29N 27°57' W 082°27'0 0.0
2019-Apr-14 12:59N 27°57' W 082°27'0 0.0
2019-Apr-14 12:29N 27°57' W 082°27'0 0.0
2019-Apr-14 11:59N 27°57' W 082°27'0 0.0
2019-Apr-14 11:28N 27°57' W 082°27'0 0.0
2019-Apr-14 10:58N 27°57' W 082°27'0 0.2
2019-Apr-14 10:30N 27°57' W 082°27'2 3.5
2019-Apr-14 10:00N 27°55' W 082°27'4 8.7
2019-Apr-14 09:30N 27°51' W 082°27'611.5
2019-Apr-14 09:00N 27°47' W 082°31'713.4
2019-Apr-14 08:30N 27°41' W 082°35'  
Track history (hours):
 
Tides and Currents Weather Stations Pressure Air Temp Water Temp Dewpoint Dewpoint Depression Visibility Wind Speed Wind Dir Waves Ship Positions

Carnival Miracle

Operator: Carnival Cruise Lines

Last reported at 2019-Apr-23 22:07 UTC. Time now 2019-Apr-24 21:58 UTC.
Position N 20°20' W 087°05'.

Type: Ship. MMSI: 35437000.

Date/timePositionNaut miles runAvg speedWind from/ knotsBaromVisibWave heightAir tempDewpointWater temp
2019-Apr-23 22:07N 20°20' W 087°05'214.3
2019-Apr-23 22:00N 20°22' W 087°04'713.9
2019-Apr-23 21:30N 20°28' W 087°01'2 3.9
2019-Apr-23 20:58N 20°29' W 086°59'0 0.0
2019-Apr-23 20:28N 20°29' W 086°59'0 0.0
2019-Apr-23 19:58N 20°29' W 086°59'0 0.0
2019-Apr-23 19:30N 20°29' W 086°59'0 0.0
2019-Apr-23 19:00N 20°29' W 086°59'0 0.0
2019-Apr-23 18:30N 20°29' W 086°59'0 0.0
2019-Apr-23 18:00N 20°29' W 086°59'0 0.0
2019-Apr-23 17:24N 20°29' W 086°59'0 0.0
2019-Apr-23 16:59N 20°29' W 086°59'0 0.0
2019-Apr-23 16:26N 20°29' W 086°59'0 0.0
2019-Apr-23 15:59N 20°29' W 086°59'0 0.0
2019-Apr-23 15:26N 20°29' W 086°59'0 0.0
2019-Apr-23 14:59N 20°29' W 086°59'0 0.0
2019-Apr-23 14:28N 20°29' W 086°59'0 0.0
2019-Apr-23 13:58N 20°29' W 086°59'0 0.0
2019-Apr-23 13:28N 20°29' W 086°59'0 0.0
2019-Apr-23 12:58N 20°29' W 086°59'0 0.0
2019-Apr-23 12:27N 20°29' W 086°59'0 0.0
2019-Apr-23 12:00N 20°29' W 086°59'0 0.0
2019-Apr-23 11:30N 20°29' W 086°59'1 3.0
2019-Apr-23 11:01N 20°30' W 086°59'4 8.3
2019-Apr-23 10:30N 20°34' W 086°58'4 7.7
2019-Apr-23 10:00N 20°37' W 086°55'4 7.4
2019-Apr-23 09:30N 20°40' W 086°53'27211.6
2019-Apr-22 10:00N 24°24' W 084°06'21517.3 070 / 111019.627.0 26.023.225.0
2019-Apr-21 21:34N 27°42' W 082°33'115.5
2019-Apr-21 21:30N 27°43' W 082°33'612.8
2019-Apr-21 21:00N 27°48' W 082°29'611.6
2019-Apr-21 20:30N 27°53' W 082°26'3 5.4
2019-Apr-21 20:00N 27°56' W 082°27'1 1.2
2019-Apr-21 19:28N 27°57' W 082°27'0 0.0
2019-Apr-21 18:58N 27°57' W 082°27'0 0.0
2019-Apr-21 18:31N 27°57' W 082°27'0 0.0
2019-Apr-21 18:00N 27°57' W 082°27'0 0.0
2019-Apr-21 17:30N 27°57' W 082°27'0 0.0
2019-Apr-21 17:00N 27°57' W 082°27'0 0.0
2019-Apr-21 16:30N 27°57' W 082°27'0 0.0
2019-Apr-21 15:59N 27°57' W 082°27'0 0.0
2019-Apr-21 15:29N 27°57' W 082°27'0 0.0
2019-Apr-21 14:59N 27°57' W 082°27'0 0.0
2019-Apr-21 14:29N 27°57' W 082°27'0 0.0
2019-Apr-21 13:59N 27°57' W 082°27'0 0.0
2019-Apr-21 13:30N 27°57' W 082°27'0 0.0
2019-Apr-21 12:58N 27°57' W 082°27'0 0.0
2019-Apr-21 12:28N 27°57' W 082°27'0 0.0
2019-Apr-21 11:58N 27°57' W 082°27'0 0.0
2019-Apr-21 11:30N 27°57' W 082°27'0 0.0
2019-Apr-21 11:00N 27°57' W 082°27'0 0.3
2019-Apr-21 10:30N 27°57' W 082°27'1 2.6
2019-Apr-21 10:00N 27°55' W 082°27'3 6.7
2019-Apr-21 09:30N 27°52' W 082°27'611.9
2019-Apr-21 09:00N 27°47' W 082°31'713.6
2019-Apr-21 08:30N 27°41' W 082°34'30713.1
2019-Apr-20 09:00N 23°12' W 085°18'17416.5 310 / 201014.727.0 26.023.228.0
2019-Apr-19 22:25N 20°42' W 086°53'818.9
2019-Apr-19 21:59N 20°35' W 086°58'612.3
2019-Apr-19 21:31N 20°29' W 086°59'0 0.7
2019-Apr-19 21:00N 20°29' W 086°59'0 0.0
2019-Apr-19 20:30N 20°29' W 086°59'0 0.0
2019-Apr-19 20:00N 20°29' W 086°59'0 0.0
2019-Apr-19 19:30N 20°29' W 086°59'0 0.0
2019-Apr-19 19:00N 20°29' W 086°59'0 0.0
2019-Apr-19 18:29N 20°29' W 086°59'0 0.0
2019-Apr-19 17:59N 20°29' W 086°59'0 0.0
2019-Apr-19 17:29N 20°29' W 086°59'0 0.0
2019-Apr-19 16:59N 20°29' W 086°59'0 0.0
2019-Apr-19 16:28N 20°29' W 086°59'0 0.0
2019-Apr-19 15:58N 20°29' W 086°59'0 0.0
2019-Apr-19 15:28N 20°29' W 086°59'0 0.0
2019-Apr-19 14:58N 20°29' W 086°59'0 0.0
2019-Apr-19 14:28N 20°29' W 086°59'0 0.0
2019-Apr-19 14:00N 20°29' W 086°59'0 0.0
2019-Apr-19 13:30N 20°29' W 086°59'0 0.0
2019-Apr-19 13:00N 20°29' W 086°59'0 0.0
2019-Apr-19 12:30N 20°29' W 086°59'0 0.0
2019-Apr-19 11:57N 20°29' W 086°59'0 0.6
2019-Apr-19 11:30N 20°29' W 086°59'2 4.1
2019-Apr-19 11:00N 20°29' W 087°01'815.1
2019-Apr-19 10:29N 20°23' W 087°05'234 4.8
2019-Apr-17 10:00N 16°42' W 085°42'23619.7 110 / 121012.927.0 26.023.228.0
2019-Apr-16 22:00N 18°48' W 082°12'54 4.1 060 / 121014.410.8 26.021.828.0
2019-Apr-16 09:00N 19°24' W 081°30'32214.0 050 / 10 27.0 26.024.628.0
2019-Apr-15 10:00N 24°06' W 084°18'13322.2 310 / 20 27.0 23.020.126.0
2019-Apr-15 04:00N 26°12' W 083°30'10316.4 270 / 111014.0 20.020.025.0
2019-Apr-14 21:44N 27°42' W 082°34'415.3
2019-Apr-14 21:27N 27°45' W 082°31'612.3
2019-Apr-14 21:01N 27°49' W 082°27'611.4
2019-Apr-14 20:30N 27°55' W 082°27'2 3.6
2019-Apr-14 19:59N 27°57' W 082°27'0 0.4
2019-Apr-14 19:29N 27°57' W 082°27'0 0.0
2019-Apr-14 18:59N 27°57' W 082°27'0 0.0
2019-Apr-14 18:28N 27°57' W 082°27'0 0.0
2019-Apr-14 17:58N 27°57' W 082°27'0 0.0
2019-Apr-14 17:28N 27°57' W 082°27'0 0.0
2019-Apr-14 16:58N 27°57' W 082°27'0 0.0
2019-Apr-14 16:28N 27°57' W 082°27'0 0.0
2019-Apr-14 16:00N 27°57' W 082°27'0 0.0
2019-Apr-14 15:30N 27°57' W 082°27'0 0.0
2019-Apr-14 15:00N 27°57' W 082°27'0 0.0
2019-Apr-14 14:30N 27°57' W 082°27'0 0.0
2019-Apr-14 13:59N 27°57' W 082°27'0 0.0
2019-Apr-14 13:29N 27°57' W 082°27'0 0.0
2019-Apr-14 12:59N 27°57' W 082°27'0 0.0
2019-Apr-14 12:29N 27°57' W 082°27'0 0.0
2019-Apr-14 11:59N 27°57' W 082°27'0 0.0
2019-Apr-14 11:28N 27°57' W 082°27'0 0.0
2019-Apr-14 10:58N 27°57' W 082°27'0 0.2
2019-Apr-14 10:30N 27°57' W 082°27'2 3.5
2019-Apr-14 10:00N 27°55' W 082°27'4 8.7
2019-Apr-14 09:30N 27°51' W 082°27'611.5
2019-Apr-14 09:00N 27°47' W 082°31'713.4
2019-Apr-14 08:30N 27°41' W 082°35'  

Dump ship's entire track history